createdAt,value
2022-09-23T00:01:50.993Z,95976.13
2022-09-23T00:06:54.199Z,95969.88
2022-09-23T00:11:57.533Z,95971.63
2022-09-23T00:17:00.948Z,95967.38
2022-09-23T00:22:03.749Z,95962.91
2022-09-23T00:27:07.035Z,95960.94
2022-09-23T00:32:11.036Z,95955.13
2022-09-23T00:37:14.704Z,95955.75
2022-09-23T00:42:18.629Z,95958.69
2022-09-23T00:47:31.909Z,95962.28
2022-09-23T00:52:35.062Z,95949.78
2022-09-23T00:57:38.311Z,95954.31
2022-09-23T01:02:41.543Z,95946.88
2022-09-23T01:07:44.867Z,95945.75
2022-09-23T01:12:48.173Z,95937.06
2022-09-23T01:17:51.475Z,95936.03
2022-09-23T01:22:54.790Z,95928.59
2022-09-23T01:27:57.970Z,95941.34
2022-09-23T01:33:01.226Z,95927.34
2022-09-23T01:38:04.645Z,95918.31
2022-09-23T01:43:07.981Z,95919.91
2022-09-23T01:48:14.044Z,95920.59
2022-09-23T01:53:17.304Z,95909.81
2022-09-23T01:58:20.537Z,95902.66
2022-09-23T02:03:27.338Z,95902.56
2022-09-23T02:08:30.565Z,95904.31
2022-09-23T02:13:33.750Z,95905.34
2022-09-23T02:18:37.302Z,95904.19
2022-09-23T02:23:41.464Z,95911.00
2022-09-23T02:28:44.670Z,95912.06
2022-09-23T02:33:48.838Z,95910.31
2022-09-23T02:38:52.299Z,95910.44
2022-09-23T02:43:55.957Z,95899.22
2022-09-23T02:49:00.811Z,95894.91
2022-09-23T02:54:04.493Z,95889.72
2022-09-23T02:59:07.745Z,95897.13
2022-09-23T03:04:11.855Z,95887.97
2022-09-23T03:09:15.021Z,95892.72
2022-09-23T03:14:18.244Z,95885.78
2022-09-23T03:19:21.664Z,95882.44
2022-09-23T03:24:24.905Z,95875.47
2022-09-23T03:29:29.136Z,95874.91
2022-09-23T03:34:32.429Z,95872.25
2022-09-23T03:39:35.686Z,95889.25
2022-09-23T03:44:39.117Z,95884.75
2022-09-23T03:49:42.383Z,95883.91
2022-09-23T03:54:45.671Z,95876.03
2022-09-23T03:59:48.884Z,95877.19
2022-09-23T04:04:52.097Z,95867.47
2022-09-23T04:09:55.810Z,95863.31
2022-09-23T04:14:58.977Z,95864.69
2022-09-23T04:20:02.221Z,95866.56
2022-09-23T04:25:05.445Z,95869.91
2022-09-23T04:30:09.132Z,95862.16
2022-09-23T04:35:12.478Z,95868.06
2022-09-23T04:40:15.676Z,95869.22
2022-09-23T04:45:19.249Z,95862.75
2022-09-23T04:50:22.680Z,95873.50
2022-09-23T04:55:26.067Z,95872.47
2022-09-23T05:00:29.434Z,95868.53
2022-09-23T05:05:33.124Z,95880.69
2022-09-23T05:10:41.127Z,95874.91
2022-09-23T05:15:44.321Z,95880.09
2022-09-23T05:20:47.547Z,95878.81
2022-09-23T05:25:50.727Z,95882.56
2022-09-23T05:30:53.936Z,95871.31
2022-09-23T05:35:57.226Z,95871.75
2022-09-23T05:41:00.609Z,95874.97
2022-09-23T05:46:07.957Z,95871.13
2022-09-23T05:51:12.848Z,95878.13
2022-09-23T05:56:16.146Z,95863.09
2022-09-23T06:01:21.218Z,95861.03
2022-09-23T06:06:29.076Z,95860.72
2022-09-23T06:11:32.287Z,95851.47
2022-09-23T06:16:35.723Z,95845.66
2022-09-23T06:21:40.442Z,95846.41
2022-09-23T06:26:43.625Z,95849.31
2022-09-23T06:31:46.928Z,95856.53
2022-09-23T06:36:51.809Z,95846.75
2022-09-23T06:41:55.431Z,95838.66
2022-09-23T06:46:58.686Z,95852.63
2022-09-23T06:52:01.635Z,95852.97
2022-09-23T06:57:04.521Z,95841.69
2022-09-23T07:02:07.355Z,95850.63
2022-09-23T07:07:11.507Z,95854.47
2022-09-23T07:12:18.242Z,95852.88
2022-09-23T07:17:21.006Z,95843.84
2022-09-23T07:22:24.405Z,95842.53
2022-09-23T07:27:27.185Z,95848.00
2022-09-23T07:32:36.329Z,95840.00
2022-09-23T07:37:43.672Z,95851.06
2022-09-23T07:42:47.881Z,95846.28
2022-09-23T07:47:51.833Z,95853.28
2022-09-23T07:52:54.485Z,95846.38
2022-09-23T07:57:57.147Z,95858.72
2022-09-23T08:03:06.017Z,95847.41
2022-09-23T08:08:09.901Z,95845.47
2022-09-23T08:13:12.611Z,95853.75
2022-09-23T08:18:15.689Z,95851.97
2022-09-23T08:23:20.477Z,95857.41
2022-09-23T08:28:24.166Z,95856.91
2022-09-23T08:33:27.779Z,95848.59
2022-09-23T08:38:30.998Z,95846.06
2022-09-23T08:43:34.162Z,95851.78
2022-09-23T08:48:37.510Z,95848.75
2022-09-23T08:53:42.361Z,95849.09
2022-09-23T08:58:45.521Z,95851.97
2022-09-23T09:03:48.753Z,95851.03
2022-09-23T09:08:52.376Z,95840.53
2022-09-23T09:13:55.654Z,95844.13
2022-09-23T09:18:59.854Z,95834.25
2022-09-23T09:24:03.605Z,95835.78
2022-09-23T09:29:30.713Z,95825.50
2022-09-23T09:34:31.026Z,95819.53
2022-09-23T09:39:34.293Z,95810.38
2022-09-23T09:44:37.574Z,95810.25
2022-09-23T09:49:40.921Z,95799.28
2022-09-23T09:54:44.530Z,95810.09
2022-09-23T09:59:47.814Z,95798.53
2022-09-23T10:04:51.062Z,95787.72
2022-09-23T10:09:58.352Z,95789.16
2022-09-23T10:15:05.017Z,95788.16
2022-09-23T10:20:08.462Z,95783.66
2022-09-23T10:25:12.065Z,95776.69
2022-09-23T10:30:15.371Z,95767.22
2022-09-23T10:35:21.148Z,95773.00
2022-09-23T10:40:42.237Z,95769.28
2022-09-23T10:46:03.112Z,95763.88
2022-09-23T10:51:06.438Z,95762.78
2022-09-23T10:56:09.757Z,95758.72
2022-09-23T11:01:13.540Z,95745.06
2022-09-23T11:06:16.944Z,95748.38
2022-09-23T11:11:21.210Z,95746.28
2022-09-23T11:16:24.753Z,95739.81
2022-09-23T11:21:28.315Z,95742.41
2022-09-23T11:26:33.248Z,95739.66
2022-09-23T11:31:37.789Z,95722.59
2022-09-23T11:36:44.804Z,95721.28
2022-09-23T11:41:48.142Z,95715.25
2022-09-23T11:46:51.523Z,95708.56
2022-09-23T11:51:54.693Z,95705.25
2022-09-23T11:56:57.866Z,95696.47
2022-09-23T12:02:13.522Z,95703.72
2022-09-23T12:07:20.046Z,95693.13
2022-09-23T12:12:26.872Z,95685.63
2022-09-23T12:17:29.813Z,95676.34
2022-09-23T12:22:32.546Z,95675.97
2022-09-23T12:27:36.653Z,95679.69
2022-09-23T12:32:39.327Z,95673.16
2022-09-23T12:37:43.532Z,95661.31
2022-09-23T12:42:46.329Z,95658.28
2022-09-23T12:47:49.052Z,95647.75
2022-09-23T12:52:51.930Z,95651.25
2022-09-23T12:57:58.327Z,95644.22
2022-09-23T13:03:19.025Z,95634.41
2022-09-23T13:08:21.702Z,95638.78
2022-09-23T13:13:25.267Z,95625.53
2022-09-23T13:18:27.982Z,95617.66
2022-09-23T13:23:31.306Z,95605.94
2022-09-23T13:28:34.463Z,95600.22
2022-09-23T13:33:37.667Z,95585.84
2022-09-23T13:38:40.847Z,95589.81
2022-09-23T13:43:43.517Z,95578.72
2022-09-23T13:48:46.214Z,95578.78
2022-09-23T13:53:48.997Z,95583.75
2022-09-23T13:58:52.313Z,95584.75
2022-09-23T14:03:55.021Z,95578.31
2022-09-23T14:08:58.933Z,95569.13
2022-09-23T14:14:07.175Z,95569.72
2022-09-23T14:19:11.467Z,95569.09
2022-09-23T14:24:14.616Z,95559.91
2022-09-23T14:29:17.796Z,95552.13
2022-09-23T14:34:21.013Z,95549.25
2022-09-23T14:39:24.225Z,95541.16
2022-09-23T14:44:28.168Z,95542.91
2022-09-23T14:49:32.594Z,95541.94
2022-09-23T14:54:39.499Z,95537.81
2022-09-23T14:59:43.185Z,95532.22
2022-09-23T15:04:46.902Z,95532.25
2022-09-23T15:09:50.517Z,95531.59
2022-09-23T15:14:53.711Z,95527.75
2022-09-23T15:19:56.912Z,95518.97
2022-09-23T15:25:00.177Z,95522.28
2022-09-23T15:30:04.058Z,95508.38
2022-09-23T15:35:07.873Z,95507.91
2022-09-23T15:40:12.595Z,95511.22
2022-09-23T15:45:17.276Z,95511.06
2022-09-23T15:50:20.782Z,95508.34
2022-09-23T15:55:24.492Z,95505.75
2022-09-23T16:00:27.868Z,95506.16
2022-09-23T16:05:34.362Z,95506.16
2022-09-23T16:10:37.109Z,95514.41
2022-09-23T16:15:39.878Z,95505.00
2022-09-23T16:20:43.115Z,95508.78
2022-09-23T16:25:45.814Z,95516.84
2022-09-23T16:30:48.549Z,95519.06
2022-09-23T16:35:51.785Z,95516.50
2022-09-23T16:40:56.068Z,95521.41
2022-09-23T16:45:59.325Z,95526.25
2022-09-23T16:51:02.452Z,95524.59
2022-09-23T16:56:06.650Z,95526.59
2022-09-23T17:01:27.110Z,95525.31
2022-09-23T17:06:31.120Z,95524.34
2022-09-23T17:11:35.049Z,95508.31
2022-09-23T17:16:38.626Z,95521.09
2022-09-23T17:21:42.161Z,95528.88
2022-09-23T17:26:52.047Z,95534.66
2022-09-23T17:31:56.232Z,95548.38
2022-09-23T17:36:59.371Z,95547.97
2022-09-23T17:42:03.753Z,95551.19
2022-09-23T17:47:07.654Z,95550.75
2022-09-23T17:52:10.397Z,95552.44
2022-09-23T17:57:13.960Z,95552.72
2022-09-23T18:02:16.710Z,95550.53
2022-09-23T18:07:19.507Z,95548.84
2022-09-23T18:12:22.345Z,95542.59
2022-09-23T18:17:25.027Z,95544.53
2022-09-23T18:22:27.780Z,95551.00
2022-09-23T18:27:31.418Z,95548.25
2022-09-23T18:32:34.267Z,95547.31
2022-09-23T18:37:37.433Z,95552.84
2022-09-23T18:42:42.025Z,95545.41
2022-09-23T18:48:03.329Z,95542.94
2022-09-23T18:53:06.502Z,95557.31
2022-09-23T18:58:12.141Z,95557.75
2022-09-23T19:03:15.418Z,95554.97
2022-09-23T19:08:19.937Z,95555.59
2022-09-23T19:13:23.169Z,95560.81
2022-09-23T19:18:26.358Z,95560.06
2022-09-23T19:23:29.629Z,95563.56
2022-09-23T19:28:33.281Z,95552.94
2022-09-23T19:33:36.821Z,95546.50
2022-09-23T19:38:40.011Z,95546.22
2022-09-23T19:43:44.321Z,95545.44
2022-09-23T19:48:48.548Z,95541.50
2022-09-23T19:53:51.735Z,95549.56
2022-09-23T19:58:55.703Z,95539.50
2022-09-23T20:03:58.948Z,95532.81
2022-09-23T20:09:02.247Z,95538.97
2022-09-23T20:14:06.569Z,95528.53
2022-09-23T20:19:10.096Z,95536.88
2022-09-23T20:24:13.694Z,95528.53
2022-09-23T20:29:16.884Z,95530.66
2022-09-23T20:34:21.221Z,95525.31
2022-09-23T20:39:24.461Z,95524.00
2022-09-23T20:44:27.750Z,95526.44
2022-09-23T20:49:34.177Z,95518.91
2022-09-23T20:54:38.844Z,95514.59
2022-09-23T20:59:42.128Z,95517.00
2022-09-23T21:04:45.563Z,95520.25
2022-09-23T21:09:48.700Z,95514.00
2022-09-23T21:14:51.687Z,95511.00
2022-09-23T21:19:54.902Z,95496.03
2022-09-23T21:25:27.034Z,95495.72
2022-09-23T21:30:20.394Z,95495.47
2022-09-23T21:35:23.641Z,95496.25
2022-09-23T21:40:44.738Z,95493.81
2022-09-23T21:45:48.211Z,95491.53
2022-09-23T21:50:52.323Z,95498.03
2022-09-23T21:55:55.574Z,95493.03
2022-09-23T22:00:59.858Z,95494.16
2022-09-23T22:06:05.707Z,95500.34
2022-09-23T22:11:09.005Z,95488.84
2022-09-23T22:16:16.719Z,95489.59
2022-09-23T22:21:20.621Z,95483.72
2022-09-23T22:26:24.316Z,95483.97
2022-09-23T22:31:45.404Z,95482.34
2022-09-23T22:36:48.670Z,95480.97
2022-09-23T22:41:51.829Z,95478.84
2022-09-23T22:46:55.028Z,95468.13
2022-09-23T22:51:58.619Z,95478.88
2022-09-23T22:57:03.305Z,95477.56
2022-09-23T23:02:08.216Z,95460.06
2022-09-23T23:07:21.562Z,95463.00
2022-09-23T23:12:24.803Z,95448.50
2022-09-23T23:17:28.073Z,95433.19
2022-09-23T23:22:31.334Z,95435.84
2022-09-23T23:27:35.299Z,95436.41
2022-09-23T23:32:38.535Z,95441.78
2022-09-23T23:37:41.824Z,95439.06
2022-09-23T23:42:45.023Z,95436.41
2022-09-23T23:47:48.270Z,95426.22
2022-09-23T23:52:51.618Z,95434.34
2022-09-23T23:58:03.203Z,95429.56
